sensor_id;sensor_type;location;lat;lon;timestamp;temperature;humidity
59146;DHT22;44928;53.074;6.646;2024-03-06T00:01:03;5.30;99.90
59146;DHT22;44928;53.074;6.646;2024-03-06T00:03:29;5.30;99.90
59146;DHT22;44928;53.074;6.646;2024-03-06T00:05:55;5.30;99.90
59146;DHT22;44928;53.074;6.646;2024-03-06T00:08:21;5.30;99.90
59146;DHT22;44928;53.074;6.646;2024-03-06T00:10:46;5.30;99.90
59146;DHT22;44928;53.074;6.646;2024-03-06T00:13:12;5.30;99.90
59146;DHT22;44928;53.074;6.646;2024-03-06T00:15:38;5.20;99.90
59146;DHT22;44928;53.074;6.646;2024-03-06T00:18:04;5.20;99.90
59146;DHT22;44928;53.074;6.646;2024-03-06T00:20:31;5.20;99.90
59146;DHT22;44928;53.074;6.646;2024-03-06T00:22:57;5.20;99.90
59146;DHT22;44928;53.074;6.646;2024-03-06T00:25:25;5.20;99.90
59146;DHT22;44928;53.074;6.646;2024-03-06T00:27:50;5.20;99.90
59146;DHT22;44928;53.074;6.646;2024-03-06T00:30:16;5.20;99.90
59146;DHT22;44928;53.074;6.646;2024-03-06T00:32:42;5.20;99.90
59146;DHT22;44928;53.074;6.646;2024-03-06T00:35:08;5.20;99.90
59146;DHT22;44928;53.074;6.646;2024-03-06T00:37:34;5.20;99.90
59146;DHT22;44928;53.074;6.646;2024-03-06T00:39:59;5.20;99.90
59146;DHT22;44928;53.074;6.646;2024-03-06T00:42:25;5.20;99.90
59146;DHT22;44928;53.074;6.646;2024-03-06T00:44:51;5.20;99.90
59146;DHT22;44928;53.074;6.646;2024-03-06T00:47:17;5.20;99.90
59146;DHT22;44928;53.074;6.646;2024-03-06T00:49:43;5.20;99.90
59146;DHT22;44928;53.074;6.646;2024-03-06T00:52:08;5.20;99.90
59146;DHT22;44928;53.074;6.646;2024-03-06T00:54:35;5.20;99.90
59146;DHT22;44928;53.074;6.646;2024-03-06T00:57:01;5.20;99.90
59146;DHT22;44928;53.074;6.646;2024-03-06T00:59:27;5.20;99.90
59146;DHT22;44928;53.074;6.646;2024-03-06T01:01:53;5.20;99.90
59146;DHT22;44928;53.074;6.646;2024-03-06T01:04:22;5.20;99.90
59146;DHT22;44928;53.074;6.646;2024-03-06T01:06:48;5.20;99.90
59146;DHT22;44928;53.074;6.646;2024-03-06T01:09:14;5.20;99.90
59146;DHT22;44928;53.074;6.646;2024-03-06T01:11:40;5.20;99.90
59146;DHT22;44928;53.074;6.646;2024-03-06T01:14:06;5.20;99.90
59146;DHT22;44928;53.074;6.646;2024-03-06T01:16:31;5.20;99.90
59146;DHT22;44928;53.074;6.646;2024-03-06T01:18:57;5.20;99.90
59146;DHT22;44928;53.074;6.646;2024-03-06T01:21:23;5.20;99.90
59146;DHT22;44928;53.074;6.646;2024-03-06T01:23:49;5.20;99.90
59146;DHT22;44928;53.074;6.646;2024-03-06T01:26:14;5.20;99.90
59146;DHT22;44928;53.074;6.646;2024-03-06T01:28:40;5.10;99.90
59146;DHT22;44928;53.074;6.646;2024-03-06T01:31:06;5.10;99.90
59146;DHT22;44928;53.074;6.646;2024-03-06T01:33:32;5.10;99.90
59146;DHT22;44928;53.074;6.646;2024-03-06T01:35:58;5.20;99.90
59146;DHT22;44928;53.074;6.646;2024-03-06T01:38:23;5.10;99.90
59146;DHT22;44928;53.074;6.646;2024-03-06T01:40:49;5.10;99.90
59146;DHT22;44928;53.074;6.646;2024-03-06T01:43:23;5.10;99.90
59146;DHT22;44928;53.074;6.646;2024-03-06T01:45:51;5.10;99.90
59146;DHT22;44928;53.074;6.646;2024-03-06T01:48:20;5.10;99.90
59146;DHT22;44928;53.074;6.646;2024-03-06T01:50:47;5.10;99.90
59146;DHT22;44928;53.074;6.646;2024-03-06T01:53:14;5.10;99.90
59146;DHT22;44928;53.074;6.646;2024-03-06T01:55:41;5.10;99.90
59146;DHT22;44928;53.074;6.646;2024-03-06T01:58:07;5.10;99.90
59146;DHT22;44928;53.074;6.646;2024-03-06T02:00:34;5.10;99.90
59146;DHT22;44928;53.074;6.646;2024-03-06T02:03:01;5.10;99.90
59146;DHT22;44928;53.074;6.646;2024-03-06T02:05:28;5.20;99.90
59146;DHT22;44928;53.074;6.646;2024-03-06T02:07:58;5.20;99.90
59146;DHT22;44928;53.074;6.646;2024-03-06T02:10:25;5.10;99.90
59146;DHT22;44928;53.074;6.646;2024-03-06T02:12:52;5.10;99.90
59146;DHT22;44928;53.074;6.646;2024-03-06T02:15:19;5.10;99.90
59146;DHT22;44928;53.074;6.646;2024-03-06T02:17:44;5.10;99.90
59146;DHT22;44928;53.074;6.646;2024-03-06T02:20:11;5.10;99.90
59146;DHT22;44928;53.074;6.646;2024-03-06T02:22:39;5.10;99.90
59146;DHT22;44928;53.074;6.646;2024-03-06T02:25:06;5.10;99.90
59146;DHT22;44928;53.074;6.646;2024-03-06T02:27:32;5.10;99.90
59146;DHT22;44928;53.074;6.646;2024-03-06T02:29:58;5.10;99.90
59146;DHT22;44928;53.074;6.646;2024-03-06T02:32:24;5.10;99.90
59146;DHT22;44928;53.074;6.646;2024-03-06T02:34:51;5.10;99.90
59146;DHT22;44928;53.074;6.646;2024-03-06T02:37:17;5.10;99.90
59146;DHT22;44928;53.074;6.646;2024-03-06T02:39:43;5.10;99.90
59146;DHT22;44928;53.074;6.646;2024-03-06T02:42:09;5.10;99.90
59146;DHT22;44928;53.074;6.646;2024-03-06T02:44:35;5.10;99.90
59146;DHT22;44928;53.074;6.646;2024-03-06T02:47:01;5.10;99.90
59146;DHT22;44928;53.074;6.646;2024-03-06T02:49:26;5.10;99.90
59146;DHT22;44928;53.074;6.646;2024-03-06T02:51:52;5.10;99.90
59146;DHT22;44928;53.074;6.646;2024-03-06T02:54:18;5.10;99.90
59146;DHT22;44928;53.074;6.646;2024-03-06T02:56:44;5.10;99.90
59146;DHT22;44928;53.074;6.646;2024-03-06T02:59:10;5.10;99.90
59146;DHT22;44928;53.074;6.646;2024-03-06T03:01:36;5.10;99.90
59146;DHT22;44928;53.074;6.646;2024-03-06T03:04:02;5.10;99.90
59146;DHT22;44928;53.074;6.646;2024-03-06T03:06:27;5.10;99.90
59146;DHT22;44928;53.074;6.646;2024-03-06T03:08:54;5.10;99.90
59146;DHT22;44928;53.074;6.646;2024-03-06T03:11:21;5.10;99.90
59146;DHT22;44928;53.074;6.646;2024-03-06T03:13:47;5.10;99.90
59146;DHT22;44928;53.074;6.646;2024-03-06T03:16:17;5.10;99.90
59146;DHT22;44928;53.074;6.646;2024-03-06T03:18:43;5.10;99.90
59146;DHT22;44928;53.074;6.646;2024-03-06T03:21:09;5.10;99.90
59146;DHT22;44928;53.074;6.646;2024-03-06T03:23:39;5.00;99.90
59146;DHT22;44928;53.074;6.646;2024-03-06T03:26:08;5.00;99.90
59146;DHT22;44928;53.074;6.646;2024-03-06T03:28:40;5.00;99.90
59146;DHT22;44928;53.074;6.646;2024-03-06T03:31:09;5.00;99.90
59146;DHT22;44928;53.074;6.646;2024-03-06T03:33:44;5.00;99.90
59146;DHT22;44928;53.074;6.646;2024-03-06T03:36:10;5.00;99.90
59146;DHT22;44928;53.074;6.646;2024-03-06T03:38:38;5.00;99.90
59146;DHT22;44928;53.074;6.646;2024-03-06T03:41:10;5.00;99.90
59146;DHT22;44928;53.074;6.646;2024-03-06T03:43:39;5.00;99.90
59146;DHT22;44928;53.074;6.646;2024-03-06T03:46:05;5.00;99.90
59146;DHT22;44928;53.074;6.646;2024-03-06T03:48:32;5.00;99.90
59146;DHT22;44928;53.074;6.646;2024-03-06T03:51:02;5.00;99.90
59146;DHT22;44928;53.074;6.646;2024-03-06T03:53:29;5.00;99.90
59146;DHT22;44928;53.074;6.646;2024-03-06T03:55:55;5.00;99.90
59146;DHT22;44928;53.074;6.646;2024-03-06T03:58:21;5.00;99.90
59146;DHT22;44928;53.074;6.646;2024-03-06T04:00:47;5.00;99.90
59146;DHT22;44928;53.074;6.646;2024-03-06T04:03:12;4.90;99.90
59146;DHT22;44928;53.074;6.646;2024-03-06T04:05:38;4.90;99.90
59146;DHT22;44928;53.074;6.646;2024-03-06T04:08:04;4.90;99.90
59146;DHT22;44928;53.074;6.646;2024-03-06T04:10:32;4.90;99.90
59146;DHT22;44928;53.074;6.646;2024-03-06T04:12:58;5.00;99.90
59146;DHT22;44928;53.074;6.646;2024-03-06T04:15:25;4.90;99.90
59146;DHT22;44928;53.074;6.646;2024-03-06T04:17:51;4.90;99.90
59146;DHT22;44928;53.074;6.646;2024-03-06T04:20:18;4.90;99.90
59146;DHT22;44928;53.074;6.646;2024-03-06T04:22:44;4.90;99.90
59146;DHT22;44928;53.074;6.646;2024-03-06T04:25:12;4.90;99.90
59146;DHT22;44928;53.074;6.646;2024-03-06T04:27:37;4.90;99.90
59146;DHT22;44928;53.074;6.646;2024-03-06T04:30:04;4.90;99.90
59146;DHT22;44928;53.074;6.646;2024-03-06T04:32:30;4.90;99.90
59146;DHT22;44928;53.074;6.646;2024-03-06T04:34:56;4.90;99.90
59146;DHT22;44928;53.074;6.646;2024-03-06T04:37:22;4.80;99.90
59146;DHT22;44928;53.074;6.646;2024-03-06T04:39:48;4.90;99.90
59146;DHT22;44928;53.074;6.646;2024-03-06T04:42:14;4.80;99.90
59146;DHT22;44928;53.074;6.646;2024-03-06T04:44:40;4.80;99.90
59146;DHT22;44928;53.074;6.646;2024-03-06T04:47:05;4.80;99.90
59146;DHT22;44928;53.074;6.646;2024-03-06T04:49:34;4.80;99.90
59146;DHT22;44928;53.074;6.646;2024-03-06T04:52:00;4.90;99.90
59146;DHT22;44928;53.074;6.646;2024-03-06T04:54:26;4.90;99.90
59146;DHT22;44928;53.074;6.646;2024-03-06T04:56:52;4.80;99.90
59146;DHT22;44928;53.074;6.646;2024-03-06T04:59:18;4.80;99.90
59146;DHT22;44928;53.074;6.646;2024-03-06T05:01:44;4.80;99.90
59146;DHT22;44928;53.074;6.646;2024-03-06T05:04:10;4.80;99.90
59146;DHT22;44928;53.074;6.646;2024-03-06T05:06:37;4.80;99.90
59146;DHT22;44928;53.074;6.646;2024-03-06T05:09:03;4.90;99.90
59146;DHT22;44928;53.074;6.646;2024-03-06T05:11:30;4.90;99.90
59146;DHT22;44928;53.074;6.646;2024-03-06T05:14:01;4.90;99.90
59146;DHT22;44928;53.074;6.646;2024-03-06T05:16:27;4.80;99.90
59146;DHT22;44928;53.074;6.646;2024-03-06T05:18:53;4.80;99.90
59146;DHT22;44928;53.074;6.646;2024-03-06T05:21:20;4.80;99.90
59146;DHT22;44928;53.074;6.646;2024-03-06T05:23:48;4.80;99.90
59146;DHT22;44928;53.074;6.646;2024-03-06T05:26:14;4.80;99.90
59146;DHT22;44928;53.074;6.646;2024-03-06T05:28:41;4.80;99.90
59146;DHT22;44928;53.074;6.646;2024-03-06T05:31:16;4.90;99.90
59146;DHT22;44928;53.074;6.646;2024-03-06T05:33:48;4.90;99.90
59146;DHT22;44928;53.074;6.646;2024-03-06T05:36:15;4.90;99.90
59146;DHT22;44928;53.074;6.646;2024-03-06T05:38:41;4.80;99.90
59146;DHT22;44928;53.074;6.646;2024-03-06T05:41:07;4.90;99.90
59146;DHT22;44928;53.074;6.646;2024-03-06T05:43:36;4.80;99.90
59146;DHT22;44928;53.074;6.646;2024-03-06T05:46:02;4.80;99.90
59146;DHT22;44928;53.074;6.646;2024-03-06T05:48:28;4.80;99.90
59146;DHT22;44928;53.074;6.646;2024-03-06T05:50:54;4.80;99.90
59146;DHT22;44928;53.074;6.646;2024-03-06T05:53:20;4.80;99.90
59146;DHT22;44928;53.074;6.646;2024-03-06T05:55:46;4.80;99.90
59146;DHT22;44928;53.074;6.646;2024-03-06T05:58:12;4.80;99.90
59146;DHT22;44928;53.074;6.646;2024-03-06T06:00:38;4.80;99.90
59146;DHT22;44928;53.074;6.646;2024-03-06T06:03:05;4.80;99.90
59146;DHT22;44928;53.074;6.646;2024-03-06T06:05:30;4.80;99.90
59146;DHT22;44928;53.074;6.646;2024-03-06T06:07:56;4.80;99.90
59146;DHT22;44928;53.074;6.646;2024-03-06T06:10:22;4.80;99.90
59146;DHT22;44928;53.074;6.646;2024-03-06T06:12:48;4.80;99.90
59146;DHT22;44928;53.074;6.646;2024-03-06T06:15:14;4.80;99.90
59146;DHT22;44928;53.074;6.646;2024-03-06T06:17:40;4.80;99.90
59146;DHT22;44928;53.074;6.646;2024-03-06T06:20:09;4.80;99.90
59146;DHT22;44928;53.074;6.646;2024-03-06T06:22:39;4.80;99.90
59146;DHT22;44928;53.074;6.646;2024-03-06T06:25:05;4.80;99.90
59146;DHT22;44928;53.074;6.646;2024-03-06T06:27:33;4.80;99.90
59146;DHT22;44928;53.074;6.646;2024-03-06T06:29:59;4.80;99.90
59146;DHT22;44928;53.074;6.646;2024-03-06T06:32:25;4.80;99.90
59146;DHT22;44928;53.074;6.646;2024-03-06T06:34:50;4.80;99.90
59146;DHT22;44928;53.074;6.646;2024-03-06T06:37:17;4.80;99.90
59146;DHT22;44928;53.074;6.646;2024-03-06T06:39:45;4.80;99.90
59146;DHT22;44928;53.074;6.646;2024-03-06T06:42:11;4.80;99.90
59146;DHT22;44928;53.074;6.646;2024-03-06T06:44:37;4.80;99.90
59146;DHT22;44928;53.074;6.646;2024-03-06T06:47:02;4.80;99.90
59146;DHT22;44928;53.074;6.646;2024-03-06T06:49:28;4.80;99.90
59146;DHT22;44928;53.074;6.646;2024-03-06T06:51:54;4.80;99.90
59146;DHT22;44928;53.074;6.646;2024-03-06T06:54:20;4.80;99.90
59146;DHT22;44928;53.074;6.646;2024-03-06T06:56:45;4.80;99.90
59146;DHT22;44928;53.074;6.646;2024-03-06T06:59:11;4.90;99.90
59146;DHT22;44928;53.074;6.646;2024-03-06T07:01:39;4.90;99.90
59146;DHT22;44928;53.074;6.646;2024-03-06T07:04:06;4.90;99.90
59146;DHT22;44928;53.074;6.646;2024-03-06T07:06:32;4.90;99.90
59146;DHT22;44928;53.074;6.646;2024-03-06T07:08:57;4.90;99.90
59146;DHT22;44928;53.074;6.646;2024-03-06T07:11:23;4.90;99.90
59146;DHT22;44928;53.074;6.646;2024-03-06T07:13:49;4.90;99.90
59146;DHT22;44928;53.074;6.646;2024-03-06T07:16:15;4.90;99.90
59146;DHT22;44928;53.074;6.646;2024-03-06T07:18:41;4.90;99.90
59146;DHT22;44928;53.074;6.646;2024-03-06T07:21:07;4.90;99.90
59146;DHT22;44928;53.074;6.646;2024-03-06T07:23:33;4.90;99.90
59146;DHT22;44928;53.074;6.646;2024-03-06T07:25:59;4.90;99.90
59146;DHT22;44928;53.074;6.646;2024-03-06T07:28:25;5.00;99.90
59146;DHT22;44928;53.074;6.646;2024-03-06T07:30:52;5.00;99.90
59146;DHT22;44928;53.074;6.646;2024-03-06T07:33:18;5.00;99.90
59146;DHT22;44928;53.074;6.646;2024-03-06T07:35:43;4.90;99.90
59146;DHT22;44928;53.074;6.646;2024-03-06T07:38:09;5.00;99.90
59146;DHT22;44928;53.074;6.646;2024-03-06T07:40:35;5.00;99.90
59146;DHT22;44928;53.074;6.646;2024-03-06T07:43:01;5.00;99.90
59146;DHT22;44928;53.074;6.646;2024-03-06T07:45:27;5.00;99.90
59146;DHT22;44928;53.074;6.646;2024-03-06T07:47:53;5.00;99.90
59146;DHT22;44928;53.074;6.646;2024-03-06T07:50:18;5.00;99.90
59146;DHT22;44928;53.074;6.646;2024-03-06T07:52:46;5.00;99.90
59146;DHT22;44928;53.074;6.646;2024-03-06T07:55:12;5.00;99.90
59146;DHT22;44928;53.074;6.646;2024-03-06T07:57:38;5.00;99.90
59146;DHT22;44928;53.074;6.646;2024-03-06T08:00:05;5.00;99.90
59146;DHT22;44928;53.074;6.646;2024-03-06T08:02:40;5.00;99.90
59146;DHT22;44928;53.074;6.646;2024-03-06T08:05:10;5.00;99.90
59146;DHT22;44928;53.074;6.646;2024-03-06T08:07:39;5.00;99.90
59146;DHT22;44928;53.074;6.646;2024-03-06T08:10:09;5.00;99.90
59146;DHT22;44928;53.074;6.646;2024-03-06T08:12:35;5.00;99.90
59146;DHT22;44928;53.074;6.646;2024-03-06T08:15:01;5.10;99.90
59146;DHT22;44928;53.074;6.646;2024-03-06T08:17:28;5.10;99.90
59146;DHT22;44928;53.074;6.646;2024-03-06T08:19:54;5.10;99.90
59146;DHT22;44928;53.074;6.646;2024-03-06T08:22:20;5.10;99.90
59146;DHT22;44928;53.074;6.646;2024-03-06T08:24:46;5.10;99.90
59146;DHT22;44928;53.074;6.646;2024-03-06T08:27:12;5.10;99.90
59146;DHT22;44928;53.074;6.646;2024-03-06T08:29:38;5.10;99.90
59146;DHT22;44928;53.074;6.646;2024-03-06T08:32:04;5.10;99.90
59146;DHT22;44928;53.074;6.646;2024-03-06T08:34:30;5.10;99.90
59146;DHT22;44928;53.074;6.646;2024-03-06T08:36:57;5.10;99.90
59146;DHT22;44928;53.074;6.646;2024-03-06T08:39:23;5.10;99.90
59146;DHT22;44928;53.074;6.646;2024-03-06T08:41:48;5.20;99.90
59146;DHT22;44928;53.074;6.646;2024-03-06T08:44:14;5.20;99.90
59146;DHT22;44928;53.074;6.646;2024-03-06T08:46:41;5.20;99.90
59146;DHT22;44928;53.074;6.646;2024-03-06T08:49:07;5.20;99.90
59146;DHT22;44928;53.074;6.646;2024-03-06T08:51:33;5.20;99.90
59146;DHT22;44928;53.074;6.646;2024-03-06T08:53:58;5.30;99.90
59146;DHT22;44928;53.074;6.646;2024-03-06T08:56:24;5.30;99.90
59146;DHT22;44928;53.074;6.646;2024-03-06T08:58:50;5.30;99.90
59146;DHT22;44928;53.074;6.646;2024-03-06T09:01:16;5.30;99.90
59146;DHT22;44928;53.074;6.646;2024-03-06T09:03:42;5.30;99.90
59146;DHT22;44928;53.074;6.646;2024-03-06T09:06:07;5.30;99.90
59146;DHT22;44928;53.074;6.646;2024-03-06T09:08:33;5.30;99.90
59146;DHT22;44928;53.074;6.646;2024-03-06T09:10:59;5.30;99.90
59146;DHT22;44928;53.074;6.646;2024-03-06T09:13:26;5.30;99.90
59146;DHT22;44928;53.074;6.646;2024-03-06T09:15:52;5.40;99.90
59146;DHT22;44928;53.074;6.646;2024-03-06T09:18:17;5.40;99.90
59146;DHT22;44928;53.074;6.646;2024-03-06T09:20:43;5.40;99.90
59146;DHT22;44928;53.074;6.646;2024-03-06T09:23:09;5.40;99.90
59146;DHT22;44928;53.074;6.646;2024-03-06T09:25:35;5.40;99.90
59146;DHT22;44928;53.074;6.646;2024-03-06T09:28:00;5.40;99.90
59146;DHT22;44928;53.074;6.646;2024-03-06T09:30:30;5.40;99.90
59146;DHT22;44928;53.074;6.646;2024-03-06T09:32:56;5.50;99.90
59146;DHT22;44928;53.074;6.646;2024-03-06T09:35:21;5.50;99.90
59146;DHT22;44928;53.074;6.646;2024-03-06T09:37:47;5.50;99.90
59146;DHT22;44928;53.074;6.646;2024-03-06T09:40:20;5.50;99.90
59146;DHT22;44928;53.074;6.646;2024-03-06T09:42:47;5.50;99.90
59146;DHT22;44928;53.074;6.646;2024-03-06T09:45:15;5.50;99.90
59146;DHT22;44928;53.074;6.646;2024-03-06T09:47:43;5.50;99.90
59146;DHT22;44928;53.074;6.646;2024-03-06T09:50:10;5.60;99.90
59146;DHT22;44928;53.074;6.646;2024-03-06T09:52:36;5.60;99.90
59146;DHT22;44928;53.074;6.646;2024-03-06T09:55:02;5.70;99.90
59146;DHT22;44928;53.074;6.646;2024-03-06T09:57:30;5.70;99.90
59146;DHT22;44928;53.074;6.646;2024-03-06T09:59:56;5.80;99.90
59146;DHT22;44928;53.074;6.646;2024-03-06T10:02:32;5.80;99.90
59146;DHT22;44928;53.074;6.646;2024-03-06T10:04:58;5.90;99.90
59146;DHT22;44928;53.074;6.646;2024-03-06T10:07:25;5.90;99.90
59146;DHT22;44928;53.074;6.646;2024-03-06T10:09:52;6.00;99.90
59146;DHT22;44928;53.074;6.646;2024-03-06T10:12:18;6.00;99.90
59146;DHT22;44928;53.074;6.646;2024-03-06T10:14:51;6.00;99.90
59146;DHT22;44928;53.074;6.646;2024-03-06T10:17:21;6.00;99.90
59146;DHT22;44928;53.074;6.646;2024-03-06T10:19:52;6.10;99.90
59146;DHT22;44928;53.074;6.646;2024-03-06T10:22:19;6.10;99.90
59146;DHT22;44928;53.074;6.646;2024-03-06T10:24:46;6.10;99.90
59146;DHT22;44928;53.074;6.646;2024-03-06T10:27:15;6.20;99.90
59146;DHT22;44928;53.074;6.646;2024-03-06T10:29:44;6.20;99.90
59146;DHT22;44928;53.074;6.646;2024-03-06T10:32:10;6.20;99.90
59146;DHT22;44928;53.074;6.646;2024-03-06T10:34:37;6.30;99.90
59146;DHT22;44928;53.074;6.646;2024-03-06T10:37:04;6.30;99.90
59146;DHT22;44928;53.074;6.646;2024-03-06T10:39:32;6.40;99.90
59146;DHT22;44928;53.074;6.646;2024-03-06T10:42:02;6.40;99.90
59146;DHT22;44928;53.074;6.646;2024-03-06T10:44:28;6.50;99.90
59146;DHT22;44928;53.074;6.646;2024-03-06T10:47:02;6.50;99.90
59146;DHT22;44928;53.074;6.646;2024-03-06T10:49:30;6.50;99.90
59146;DHT22;44928;53.074;6.646;2024-03-06T10:52:03;6.50;99.90
59146;DHT22;44928;53.074;6.646;2024-03-06T10:54:34;6.50;99.90
59146;DHT22;44928;53.074;6.646;2024-03-06T10:57:04;6.60;99.90
59146;DHT22;44928;53.074;6.646;2024-03-06T10:59:31;6.60;99.90
59146;DHT22;44928;53.074;6.646;2024-03-06T11:01:58;6.60;99.90
59146;DHT22;44928;53.074;6.646;2024-03-06T11:04:27;6.70;99.90
59146;DHT22;44928;53.074;6.646;2024-03-06T11:07:00;6.70;99.90
59146;DHT22;44928;53.074;6.646;2024-03-06T11:09:27;6.70;99.90
59146;DHT22;44928;53.074;6.646;2024-03-06T11:11:54;6.70;99.90
59146;DHT22;44928;53.074;6.646;2024-03-06T11:14:22;6.80;99.90
59146;DHT22;44928;53.074;6.646;2024-03-06T11:16:59;6.80;99.90
59146;DHT22;44928;53.074;6.646;2024-03-06T11:19:29;6.90;99.90
59146;DHT22;44928;53.074;6.646;2024-03-06T11:21:56;6.90;99.90
59146;DHT22;44928;53.074;6.646;2024-03-06T11:24:32;6.90;99.90
59146;DHT22;44928;53.074;6.646;2024-03-06T11:27:00;6.90;99.90
59146;DHT22;44928;53.074;6.646;2024-03-06T11:30:09;6.80;99.90
59146;DHT22;44928;53.074;6.646;2024-03-06T11:33:01;6.90;99.90
59146;DHT22;44928;53.074;6.646;2024-03-06T11:35:30;6.90;99.90
59146;DHT22;44928;53.074;6.646;2024-03-06T11:37:55;6.90;99.90
59146;DHT22;44928;53.074;6.646;2024-03-06T11:40:24;7.00;99.90
59146;DHT22;44928;53.074;6.646;2024-03-06T11:42:50;7.00;99.90
59146;DHT22;44928;53.074;6.646;2024-03-06T11:45:18;7.00;99.90
59146;DHT22;44928;53.074;6.646;2024-03-06T11:48:01;7.00;99.90
59146;DHT22;44928;53.074;6.646;2024-03-06T11:50:28;7.10;99.90
59146;DHT22;44928;53.074;6.646;2024-03-06T11:52:57;7.10;99.90
59146;DHT22;44928;53.074;6.646;2024-03-06T11:55:23;7.10;99.90
59146;DHT22;44928;53.074;6.646;2024-03-06T11:57:53;7.10;99.90
59146;DHT22;44928;53.074;6.646;2024-03-06T12:00:22;7.20;99.90
59146;DHT22;44928;53.074;6.646;2024-03-06T12:02:49;7.20;99.90
59146;DHT22;44928;53.074;6.646;2024-03-06T12:05:15;7.30;99.90
59146;DHT22;44928;53.074;6.646;2024-03-06T12:07:49;7.30;99.90
59146;DHT22;44928;53.074;6.646;2024-03-06T12:10:16;7.20;99.90
59146;DHT22;44928;53.074;6.646;2024-03-06T12:12:43;7.30;99.90
59146;DHT22;44928;53.074;6.646;2024-03-06T12:15:10;7.30;99.90
59146;DHT22;44928;53.074;6.646;2024-03-06T12:17:47;7.30;99.90
59146;DHT22;44928;53.074;6.646;2024-03-06T12:20:17;7.30;99.90
59146;DHT22;44928;53.074;6.646;2024-03-06T12:22:51;7.40;99.90
59146;DHT22;44928;53.074;6.646;2024-03-06T12:25:24;7.40;99.90
59146;DHT22;44928;53.074;6.646;2024-03-06T12:27:52;7.50;99.90
59146;DHT22;44928;53.074;6.646;2024-03-06T12:30:19;7.50;99.90
59146;DHT22;44928;53.074;6.646;2024-03-06T12:32:58;7.50;99.90
59146;DHT22;44928;53.074;6.646;2024-03-06T12:35:25;7.50;99.90
59146;DHT22;44928;53.074;6.646;2024-03-06T12:37:54;7.50;99.90
59146;DHT22;44928;53.074;6.646;2024-03-06T12:40:20;7.50;99.90
59146;DHT22;44928;53.074;6.646;2024-03-06T12:42:47;7.60;99.90
59146;DHT22;44928;53.074;6.646;2024-03-06T12:45:13;7.60;99.90
59146;DHT22;44928;53.074;6.646;2024-03-06T12:47:42;7.60;99.90
59146;DHT22;44928;53.074;6.646;2024-03-06T12:50:09;7.60;99.90
59146;DHT22;44928;53.074;6.646;2024-03-06T12:52:36;7.60;99.90
59146;DHT22;44928;53.074;6.646;2024-03-06T12:55:02;7.70;99.90
59146;DHT22;44928;53.074;6.646;2024-03-06T12:57:31;7.70;99.90
59146;DHT22;44928;53.074;6.646;2024-03-06T12:59:57;7.70;99.90
59146;DHT22;44928;53.074;6.646;2024-03-06T13:02:23;7.70;99.90
59146;DHT22;44928;53.074;6.646;2024-03-06T13:04:49;7.70;99.90
59146;DHT22;44928;53.074;6.646;2024-03-06T13:07:15;7.70;99.90
59146;DHT22;44928;53.074;6.646;2024-03-06T13:09:41;7.80;99.90
59146;DHT22;44928;53.074;6.646;2024-03-06T13:12:08;7.80;99.90
59146;DHT22;44928;53.074;6.646;2024-03-06T13:14:34;7.90;99.90
59146;DHT22;44928;53.074;6.646;2024-03-06T13:17:00;7.90;99.90
59146;DHT22;44928;53.074;6.646;2024-03-06T13:19:27;8.00;99.90
59146;DHT22;44928;53.074;6.646;2024-03-06T13:21:53;8.00;99.90
59146;DHT22;44928;53.074;6.646;2024-03-06T13:24:19;8.00;99.90
59146;DHT22;44928;53.074;6.646;2024-03-06T13:26:48;8.00;99.90
59146;DHT22;44928;53.074;6.646;2024-03-06T13:29:14;8.00;99.90
59146;DHT22;44928;53.074;6.646;2024-03-06T13:31:40;8.10;99.90
59146;DHT22;44928;53.074;6.646;2024-03-06T13:34:05;8.10;99.90
59146;DHT22;44928;53.074;6.646;2024-03-06T13:36:31;8.20;99.90
59146;DHT22;44928;53.074;6.646;2024-03-06T13:38:57;8.20;99.90
59146;DHT22;44928;53.074;6.646;2024-03-06T13:41:23;8.20;99.90
59146;DHT22;44928;53.074;6.646;2024-03-06T13:43:49;8.30;99.90
59146;DHT22;44928;53.074;6.646;2024-03-06T13:46:15;8.30;99.90
59146;DHT22;44928;53.074;6.646;2024-03-06T13:48:41;8.40;99.90
59146;DHT22;44928;53.074;6.646;2024-03-06T13:51:07;8.40;99.90
59146;DHT22;44928;53.074;6.646;2024-03-06T13:53:33;8.50;99.90
59146;DHT22;44928;53.074;6.646;2024-03-06T13:55:59;8.50;99.90
59146;DHT22;44928;53.074;6.646;2024-03-06T13:58:25;8.50;99.90
59146;DHT22;44928;53.074;6.646;2024-03-06T14:00:52;8.60;99.90
59146;DHT22;44928;53.074;6.646;2024-03-06T14:03:17;8.60;99.90
59146;DHT22;44928;53.074;6.646;2024-03-06T14:05:43;8.60;99.90
59146;DHT22;44928;53.074;6.646;2024-03-06T14:08:09;8.60;99.90
59146;DHT22;44928;53.074;6.646;2024-03-06T14:10:39;8.70;99.90
59146;DHT22;44928;53.074;6.646;2024-03-06T14:13:05;8.70;99.90
59146;DHT22;44928;53.074;6.646;2024-03-06T14:15:32;8.70;99.90
59146;DHT22;44928;53.074;6.646;2024-03-06T14:17:58;8.70;99.90
59146;DHT22;44928;53.074;6.646;2024-03-06T14:20:24;8.70;99.90
59146;DHT22;44928;53.074;6.646;2024-03-06T14:22:50;8.70;99.90
59146;DHT22;44928;53.074;6.646;2024-03-06T14:25:16;8.80;99.90
59146;DHT22;44928;53.074;6.646;2024-03-06T14:27:43;8.80;99.90
59146;DHT22;44928;53.074;6.646;2024-03-06T14:30:10;8.80;99.90
59146;DHT22;44928;53.074;6.646;2024-03-06T14:32:40;8.90;99.90
59146;DHT22;44928;53.074;6.646;2024-03-06T14:35:06;8.90;99.90
59146;DHT22;44928;53.074;6.646;2024-03-06T14:37:32;8.90;99.90
59146;DHT22;44928;53.074;6.646;2024-03-06T14:39:58;8.90;99.90
59146;DHT22;44928;53.074;6.646;2024-03-06T14:42:24;8.80;99.90
59146;DHT22;44928;53.074;6.646;2024-03-06T14:44:50;8.80;99.90
59146;DHT22;44928;53.074;6.646;2024-03-06T14:47:16;8.90;99.90
59146;DHT22;44928;53.074;6.646;2024-03-06T14:49:44;8.80;99.90
59146;DHT22;44928;53.074;6.646;2024-03-06T14:52:11;8.90;99.90
59146;DHT22;44928;53.074;6.646;2024-03-06T14:54:38;8.80;99.90
59146;DHT22;44928;53.074;6.646;2024-03-06T14:57:04;8.90;99.90
59146;DHT22;44928;53.074;6.646;2024-03-06T14:59:31;8.90;99.90
59146;DHT22;44928;53.074;6.646;2024-03-06T15:01:57;8.90;99.90
59146;DHT22;44928;53.074;6.646;2024-03-06T15:04:22;8.90;99.90
59146;DHT22;44928;53.074;6.646;2024-03-06T15:06:48;8.90;99.90
59146;DHT22;44928;53.074;6.646;2024-03-06T15:09:15;8.90;99.90
59146;DHT22;44928;53.074;6.646;2024-03-06T15:11:48;8.90;99.90
59146;DHT22;44928;53.074;6.646;2024-03-06T15:14:14;8.90;99.90
59146;DHT22;44928;53.074;6.646;2024-03-06T15:16:39;8.90;99.90
59146;DHT22;44928;53.074;6.646;2024-03-06T15:19:06;8.90;99.90
59146;DHT22;44928;53.074;6.646;2024-03-06T15:21:32;8.90;99.90
59146;DHT22;44928;53.074;6.646;2024-03-06T15:23:58;8.90;99.90
59146;DHT22;44928;53.074;6.646;2024-03-06T15:26:23;9.00;99.90
59146;DHT22;44928;53.074;6.646;2024-03-06T15:28:49;9.00;99.90
59146;DHT22;44928;53.074;6.646;2024-03-06T15:31:15;9.10;99.90
59146;DHT22;44928;53.074;6.646;2024-03-06T15:33:41;9.20;99.90
59146;DHT22;44928;53.074;6.646;2024-03-06T15:36:08;9.40;99.90
59146;DHT22;44928;53.074;6.646;2024-03-06T15:38:35;9.50;99.90
59146;DHT22;44928;53.074;6.646;2024-03-06T15:41:01;9.70;99.90
59146;DHT22;44928;53.074;6.646;2024-03-06T15:43:26;9.80;99.90